EKRK/RKE METAR and TAF weather

Enter ICAO airport designator
Station Type Date Time Source
EKRK METAR 2018/12/12 23:20 UTC NOAA

EKRK 122320Z AUTO 02005KT 9999NDV FEW016/// BKN028/// M01/M02 Q1030


Station Type Date Time Source
EKRK Decoded METAR 2018/12/12 23:20 UTC NOAA

Koebenhavn / Roskilde, Denmark (EKRK) 55-35N 012-08E 44M
Dec 12, 2018 - 06:20 PM EST / 2018.12.12 2320 UTC
Wind: from the NNE (020 degrees) at 6 MPH (5 KT):0
Sky conditions: mostly cloudy
Temperature: 30 F (-1 C)
Windchill: 23 F (-5 C):1
Dew Point: 28 F (-2 C)
Relative Humidity: 92%
Pressure (altimeter): 30.42 in. Hg (1030 hPa)
ob: EKRK 122320Z AUTO 02005KT 9999NDV FEW016/// BKN028/// M01/M02 Q1030
cycle: 23

Station Type Date Time Source
EKRK TAF UTC NOAA

Error!


Example: see airport list